Time;durP1;ratioP1;P1;durP2;ratioP2;P2;SDS_P1;SDS_P2;PMS_P1;PMS_P2;Temp;Humidity;BMP_temperature;BMP_pressure;BME280_temperature;BME280_humidity;BME280_pressure;Samples;Min_cycle;Max_cycle;Signal;HPM_P1;HPM_P2
2024/01/29 00:00:51;;;;;;;;;;;;;;;19.98;42.32;102580.03;2065821;28;6655;-63
2024/01/29 00:02:18;;;;;;;;;;;;;;;19.98;42.26;102585.78;2065529;28;1903;-63
2024/01/29 00:03:46;;;;;;;;;;;;;;;19.98;42.17;102585.78;2068003;28;2070;-62
2024/01/29 00:05:12;;;;;;;;;;;;;;;20.00;42.15;102588.06;2070577;28;2108;-63
2024/01/29 00:06:40;;;;;;;;;;;;;;;20.00;42.24;102588.81;2067831;28;2049;-63
2024/01/29 00:08:06;;;;;;;;;;;;;;;20.01;42.41;102590.31;2066799;28;2396;-63
2024/01/29 00:09:32;;;;;;;;;;;;;;;20.01;42.29;102589.56;2068846;28;1673;-63
2024/01/29 00:11:00;;;;;;;;;;;;;;;20.00;42.51;102577.31;2069016;28;2385;-63
2024/01/29 00:12:26;;;;;;;;;;;;;;;20.00;42.50;102583.06;2070593;28;1594;-62
2024/01/29 00:13:53;;;;;;;;;;;;;;;19.99;42.46;102581.53;2064630;28;2303;-63
2024/01/29 00:15:20;;;;;;;;;;;;;;;19.99;42.41;102580.78;2067753;28;2299;-63
2024/01/29 00:16:48;;;;;;;;;;;;;;;19.98;42.50;102588.66;2067975;28;1851;-63
2024/01/29 00:18:15;;;;;;;;;;;;;;;19.98;42.61;102580.03;2069597;28;2270;-62
2024/01/29 00:19:41;;;;;;;;;;;;;;;19.97;42.59;102581.38;2068081;28;2175;-63
2024/01/29 00:21:08;;;;;;;;;;;;;;;19.97;42.64;102572.75;2071073;28;1577;-63
2024/01/29 00:22:35;;;;;;;;;;;;;;;19.97;42.54;102584.25;2068774;28;2265;-63
2024/01/29 00:24:03;;;;;;;;;;;;;;;19.97;42.79;102572.00;2071629;28;2110;-64
2024/01/29 00:25:29;;;;;;;;;;;;;;;19.96;42.67;102577.00;2070116;28;1561;-63
2024/01/29 00:26:57;;;;;;;;;;;;;;;19.94;42.64;102565.34;2066215;28;2397;-63
2024/01/29 00:28:23;;;;;;;;;;;;;;;19.95;42.50;102572.63;2067954;28;2097;-65
2024/01/29 00:29:50;;;;;;;;;;;;;;;19.95;42.61;102564.00;2067497;28;2077;-65
2024/01/29 00:31:18;;;;;;;;;;;;;;;19.95;42.82;102564.00;2070872;28;6284;-66
2024/01/29 00:32:46;;;;;;;;;;;;;;;19.94;42.67;102562.47;2067833;28;2043;-65
2024/01/29 00:34:12;;;;;;;;;;;;;;;19.96;42.69;102559.75;2068126;28;2048;-65
2024/01/29 00:35:39;;;;;;;;;;;;;;;19.95;42.71;102564.00;2072143;28;1617;-65
2024/01/29 00:37:06;;;;;;;;;;;;;;;19.95;42.72;102569.75;2065961;28;2201;-65
2024/01/29 00:38:34;;;;;;;;;;;;;;;19.96;42.84;102564.75;2066876;28;2120;-65
2024/01/29 00:40:02;;;;;;;;;;;;;;;19.96;42.73;102568.38;2070878;28;2128;-65
2024/01/29 00:41:28;;;;;;;;;;;;;;;19.98;42.63;102577.16;2069559;28;1585;-65
2024/01/29 00:42:55;;;;;;;;;;;;;;;19.98;42.68;102559.91;2071170;28;1693;-65
2024/01/29 00:44:22;;;;;;;;;;;;;;;19.97;42.57;102567.00;2071007;28;2086;-66
2024/01/29 00:45:49;;;;;;;;;;;;;;;19.99;42.64;102564.28;2067929;28;2103;-65
2024/01/29 00:47:17;;;;;;;;;;;;;;;20.00;42.79;102567.94;2069778;28;2147;-65
2024/01/29 00:48:44;;;;;;;;;;;;;;;19.99;42.69;102566.41;2070317;28;1657;-65
2024/01/29 00:50:11;;;;;;;;;;;;;;;19.99;42.73;102569.28;2069694;28;1640;-65
2024/01/29 00:51:38;;;;;;;;;;;;;;;19.98;42.68;102562.78;2068001;28;2182;-65
2024/01/29 00:53:05;;;;;;;;;;;;;;;19.99;42.74;102564.28;2069789;28;2068;-65
2024/01/29 00:54:32;;;;;;;;;;;;;;;19.98;42.69;102574.28;2067923;28;2080;-65
2024/01/29 00:55:59;;;;;;;;;;;;;;;19.97;42.72;102561.25;2066877;28;2273;-65
2024/01/29 00:57:26;;;;;;;;;;;;;;;19.97;42.81;102561.25;2070854;28;1607;-65
2024/01/29 00:58:53;;;;;;;;;;;;;;;19.96;42.84;102559.75;2070461;28;1624;-65
2024/01/29 01:00:21;;;;;;;;;;;;;;;19.97;42.77;102560.50;2066212;28;6350;-65
2024/01/29 01:01:47;;;;;;;;;;;;;;;19.96;42.76;102556.88;2066028;28;2092;-65
2024/01/29 01:03:14;;;;;;;;;;;;;;;19.96;42.73;102554.00;2067773;28;2003;-66
2024/01/29 01:04:40;;;;;;;;;;;;;;;19.95;42.90;102564.00;2071449;28;2119;-65
2024/01/29 01:06:09;;;;;;;;;;;;;;;19.94;42.88;102550.97;2068811;28;2278;-65
2024/01/29 01:07:35;;;;;;;;;;;;;;;19.95;42.80;102560.34;2067099;28;2336;-65
2024/01/29 01:09:03;;;;;;;;;;;;;;;19.94;43.01;102568.22;2069555;28;1573;-65
2024/01/29 01:10:29;;;;;;;;;;;;;;;19.94;42.90;102558.84;2068906;28;1688;-65
2024/01/29 01:11:56;;;;;;;;;;;;;;;19.94;42.72;102555.97;2070107;28;2217;-65
2024/01/29 01:13:23;;;;;;;;;;;;;;;19.93;42.70;102560.97;2068115;28;2124;-65
2024/01/29 01:14:50;;;;;;;;;;;;;;;19.92;42.76;102550.81;2068428;28;2082;-65
2024/01/29 01:16:17;;;;;;;;;;;;;;;19.93;42.76;102555.22;2067504;28;2513;-65
2024/01/29 01:17:45;;;;;;;;;;;;;;;19.93;42.64;102558.09;2070558;28;1620;-65
2024/01/29 01:19:12;;;;;;;;;;;;;;;19.94;42.82;102561.72;2068552;28;2159;-65
2024/01/29 01:20:39;;;;;;;;;;;;;;;19.94;42.66;102562.47;2067517;28;2491;-65
2024/01/29 01:22:05;;;;;;;;;;;;;;;19.94;42.71;102550.97;2068411;28;2041;-65
2024/01/29 01:23:32;;;;;;;;;;;;;;;19.95;42.66;102560.34;2068369;28;2050;-65
2024/01/29 01:24:58;;;;;;;;;;;;;;;19.96;42.68;102559.75;2064819;28;2018;-66
2024/01/29 01:26:25;;;;;;;;;;;;;;;19.97;42.78;102554.75;2066378;28;2274;-65
2024/01/29 01:27:53;;;;;;;;;;;;;;;19.97;42.79;102558.38;2067618;28;2148;-65
2024/01/29 01:29:20;;;;;;;;;;;;;;;19.96;42.79;102559.75;2069373;28;2125;-65
2024/01/29 01:30:47;;;;;;;;;;;;;;;19.97;42.90;102555.50;2066233;28;6291;-65
2024/01/29 01:32:14;;;;;;;;;;;;;;;19.97;42.73;102564.13;2068277;28;2041;-65
2024/01/29 01:33:41;;;;;;;;;;;;;;;19.96;42.82;102556.88;2068288;28;1662;-65
2024/01/29 01:35:08;;;;;;;;;;;;;;;19.96;42.73;102554.00;2068064;28;2288;-65
2024/01/29 01:36:35;;;;;;;;;;;;;;;19.96;42.76;102554.00;2068955;28;2103;-65
2024/01/29 01:38:02;;;;;;;;;;;;;;;19.96;42.80;102550.38;2069051;28;1640;-65
2024/01/29 01:39:30;;;;;;;;;;;;;;;19.95;42.80;102551.72;2071027;28;1604;-66
2024/01/29 01:40:57;;;;;;;;;;;;;;;19.95;42.86;102546.75;2069243;28;2257;-66
2024/01/29 01:42:23;;;;;;;;;;;;;;;19.95;42.73;102546.75;2070977;28;2131;-65
2024/01/29 01:43:50;;;;;;;;;;;;;;;19.94;42.81;102550.97;2071480;28;1594;-65
2024/01/29 01:45:18;;;;;;;;;;;;;;;19.93;42.88;102543.72;2066973;28;2097;-65
2024/01/29 01:46:45;;;;;;;;;;;;;;;19.93;42.82;102543.72;2066742;28;2065;-65
2024/01/29 01:48:12;;;;;;;;;;;;;;;19.92;42.86;102536.44;2068286;28;2178;-65
2024/01/29 01:49:39;;;;;;;;;;;;;;;19.91;42.85;102546.44;2069334;28;2111;-66
2024/01/29 01:51:05;;;;;;;;;;;;;;;19.92;42.87;102532.81;2066163;28;2081;-65
2024/01/29 01:52:33;;;;;;;;;;;;;;;19.91;42.77;102534.94;2066602;28;2209;-66
2024/01/29 01:54:00;;;;;;;;;;;;;;;19.90;42.89;102530.53;2070356;28;1601;-65
2024/01/29 01:55:27;;;;;;;;;;;;;;;19.90;42.78;102533.41;2066326;28;1883;-66
2024/01/29 01:56:55;;;;;;;;;;;;;;;19.90;42.72;102536.28;2067828;28;2085;-66
2024/01/29 01:58:23;;;;;;;;;;;;;;;19.91;42.74;102528.44;2067288;28;2204;-66
2024/01/29 01:59:51;;;;;;;;;;;;;;;19.91;42.87;102529.19;2067938;28;2250;-67
2024/01/29 02:01:18;;;;;;;;;;;;;;;19.90;42.76;102524.78;2068356;28;6382;-66
2024/01/29 02:02:45;;;;;;;;;;;;;;;19.90;42.72;102524.78;2069500;28;2056;-64
2024/01/29 02:04:12;;;;;;;;;;;;;;;19.92;42.85;102522.06;2066600;28;2037;-65
2024/01/29 02:05:39;;;;;;;;;;;;;;;19.92;42.76;102513.44;2066663;28;2210;-66
2024/01/29 02:07:07;;;;;;;;;;;;;;;19.93;42.74;102520.72;2069113;28;2052;-65
2024/01/29 02:08:33;;;;;;;;;;;;;;;19.93;42.66;102512.09;2064216;28;2124;-66
2024/01/29 02:10:00;;;;;;;;;;;;;;;19.95;42.72;102509.38;2069751;28;2104;-65
2024/01/29 02:11:27;;;;;;;;;;;;;;;19.94;42.89;102507.84;2068859;28;2174;-65
2024/01/29 02:12:54;;;;;;;;;;;;;;;19.95;42.80;102506.50;2069154;28;2053;-65
2024/01/29 02:14:21;;;;;;;;;;;;;;;19.95;42.79;102506.50;2066126;28;2081;-65
2024/01/29 02:15:48;;;;;;;;;;;;;;;19.94;42.82;102499.22;2066575;28;2380;-65
2024/01/29 02:17:15;;;;;;;;;;;;;;;19.94;42.74;102499.22;2069079;28;2100;-66
2024/01/29 02:18:43;;;;;;;;;;;;;;;19.94;42.80;102502.09;2068898;28;2047;-65
2024/01/29 02:20:10;;;;;;;;;;;;;;;19.91;42.78;102494.69;2066396;28;1938;-66
2024/01/29 02:21:37;;;;;;;;;;;;;;;19.92;42.89;102507.69;2067225;28;2384;-67
2024/01/29 02:23:04;;;;;;;;;;;;;;;19.93;42.71;102494.84;2068191;28;2144;-65
2024/01/29 02:24:31;;;;;;;;;;;;;;;19.92;42.87;102501.94;2068887;28;2081;-65
2024/01/29 02:25:58;;;;;;;;;;;;;;;19.92;42.76;102496.19;2069462;28;2105;-66
2024/01/29 02:27:26;;;;;;;;;;;;;;;19.93;42.69;102502.69;2064523;28;1978;-65
2024/01/29 02:28:52;;;;;;;;;;;;;;;19.91;42.80;102499.69;2065998;28;2029;-66
2024/01/29 02:30:19;;;;;;;;;;;;;;;19.90;42.80;102496.03;2063376;28;6475;-65
2024/01/29 02:31:46;;;;;;;;;;;;;;;19.90;42.72;102493.16;2068393;28;2474;-65
2024/01/29 02:33:12;;;;;;;;;;;;;;;19.90;42.80;102481.66;2072314;28;1658;-66
2024/01/29 02:34:39;;;;;;;;;;;;;;;19.89;42.94;102494.53;2068229;28;1998;-65
2024/01/29 02:36:06;;;;;;;;;;;;;;;19.89;42.78;102485.91;2068376;28;2252;-66
2024/01/29 02:37:34;;;;;;;;;;;;;;;19.88;42.72;102481.50;2067271;28;2084;-66
2024/01/29 02:39:01;;;;;;;;;;;;;;;19.88;42.72;102485.16;2069304;28;2029;-65
2024/01/29 02:40:27;;;;;;;;;;;;;;;19.89;42.76;102483.03;2066640;28;2133;-65
2024/01/29 02:41:54;;;;;;;;;;;;;;;19.89;42.70;102494.53;2066721;28;1735;-65
2024/01/29 02:43:21;;;;;;;;;;;;;;;19.90;42.73;102486.66;2068104;28;1979;-66
2024/01/29 02:44:48;;;;;;;;;;;;;;;19.90;42.67;102487.41;2069867;28;2042;-65
2024/01/29 02:46:18;;;;;;;;;;;;;;;19.90;42.84;102480.91;2068414;28;2281;-66
2024/01/29 02:47:44;;;;;;;;;;;;;;;19.91;42.75;102500.44;2064685;28;1634;-65
2024/01/29 02:49:11;;;;;;;;;;;;;;;19.91;42.87;102488.94;2069409;28;2168;-65
2024/01/29 02:50:38;;;;;;;;;;;;;;;19.92;42.69;102489.69;2067232;28;1926;-65
2024/01/29 02:52:05;;;;;;;;;;;;;;;19.93;42.66;102489.09;2068012;28;2179;-65
2024/01/29 02:53:32;;;;;;;;;;;;;;;19.91;42.61;102483.19;2067592;28;1712;-65
2024/01/29 02:54:59;;;;;;;;;;;;;;;19.93;42.78;102486.22;2069793;28;2288;-65
2024/01/29 02:56:26;;;;;;;;;;;;;;;19.92;42.67;102481.81;2066286;28;2100;-65
2024/01/29 02:57:53;;;;;;;;;;;;;;;19.93;42.60;102491.97;2069322;28;2130;-65
2024/01/29 02:59:20;;;;;;;;;;;;;;;19.93;42.71;102489.09;2070567;28;1586;-65
2024/01/29 03:00:47;;;;;;;;;;;;;;;19.91;42.83;102486.06;2065139;28;6277;-66
2024/01/29 03:02:14;;;;;;;;;;;;;;;19.92;42.82;102484.69;2066054;28;2212;-65
2024/01/29 03:03:41;;;;;;;;;;;;;;;19.92;42.69;102483.94;2068394;28;2143;-65
2024/01/29 03:05:08;;;;;;;;;;;;;;;19.90;42.83;102487.41;2066963;28;2096;-66
2024/01/29 03:06:35;;;;;;;;;;;;;;;19.90;42.72;102478.78;2063765;28;2389;-65
2024/01/29 03:08:02;;;;;;;;;;;;;;;19.88;42.81;102484.38;2065655;28;2265;-66
2024/01/29 03:09:29;;;;;;;;;;;;;;;19.88;42.75;102478.63;2066523;28;2013;-65
2024/01/29 03:10:56;;;;;;;;;;;;;;;19.89;42.82;102477.28;2067936;28;1606;-66
2024/01/29 03:12:23;;;;;;;;;;;;;;;19.88;42.76;102472.88;2065886;28;1602;-66
2024/01/29 03:13:49;;;;;;;;;;;;;;;19.87;42.70;102468.50;2070222;28;1653;-65
2024/01/29 03:15:16;;;;;;;;;;;;;;;19.87;42.72;102465.63;2064005;28;2304;-65
2024/01/29 03:16:43;;;;;;;;;;;;;;;19.86;42.73;102464.13;2068669;28;2130;-66
2024/01/29 03:18:10;;;;;;;;;;;;;;;19.86;42.75;102470.63;2069333;28;2290;-65
2024/01/29 03:19:37;;;;;;;;;;;;;;;19.86;42.72;102469.88;2076374;28;2374;-65
2024/01/29 03:21:04;;;;;;;;;;;;;;;19.86;42.76;102469.88;2070251;28;2242;-66
2024/01/29 03:22:31;;;;;;;;;;;;;;;19.86;42.69;102464.13;2071013;28;1601;-65
2024/01/29 03:23:59;;;;;;;;;;;;;;;19.87;42.67;102462.75;2070508;28;2073;-66
2024/01/29 03:25:25;;;;;;;;;;;;;;;19.88;42.64;102472.88;2071511;28;1600;-65
2024/01/29 03:26:51;;;;;;;;;;;;;;;19.87;42.66;102474.25;2068644;28;1848;-65
2024/01/29 03:28:18;;;;;;;;;;;;;;;19.88;42.61;102467.13;2069776;28;1990;-65
2024/01/29 03:29:45;;;;;;;;;;;;;;;19.89;42.62;102462.91;2069108;28;2167;-66
2024/01/29 03:31:12;;;;;;;;;;;;;;;19.89;42.72;102462.91;2069755;28;6237;-65
2024/01/29 03:32:39;;;;;;;;;;;;;;;19.90;42.67;102464.41;2071391;28;1627;-65
2024/01/29 03:34:06;;;;;;;;;;;;;;;19.90;42.60;102461.53;2070511;28;2058;-65
2024/01/29 03:35:33;;;;;;;;;;;;;;;19.91;42.65;102465.94;2071055;28;1703;-65
2024/01/29 03:36:59;;;;;;;;;;;;;;;19.91;42.66;102465.94;2067948;28;2281;-65
2024/01/29 03:38:26;;;;;;;;;;;;;;;19.92;42.68;102460.94;2068893;28;2154;-65
2024/01/29 03:39:53;;;;;;;;;;;;;;;19.92;42.79;102467.44;2069255;28;2032;-66
2024/01/29 03:41:20;;;;;;;;;;;;;;;19.92;42.67;102458.06;2070851;28;1922;-66
2024/01/29 03:42:47;;;;;;;;;;;;;;;19.93;42.63;102460.34;2068290;28;2064;-65
2024/01/29 03:44:15;;;;;;;;;;;;;;;19.94;42.92;102463.97;2072729;28;1688;-65
2024/01/29 03:45:43;;;;;;;;;;;;;;;19.94;42.76;102464.72;2068893;28;2285;-65
2024/01/29 03:47:09;;;;;;;;;;;;;;;19.95;42.71;102466.25;2067973;28;2086;-66
2024/01/29 03:48:35;;;;;;;;;;;;;;;19.95;42.68;102460.50;2067701;28;2120;-66
2024/01/29 03:50:03;;;;;;;;;;;;;;;19.95;42.67;102463.38;2069626;28;2052;-65
2024/01/29 03:51:30;;;;;;;;;;;;;;;19.95;42.74;102466.25;2067297;28;2060;-66
2024/01/29 03:52:57;;;;;;;;;;;;;;;19.96;42.64;102456.25;2070196;28;2014;-66
2024/01/29 03:54:24;;;;;;;;;;;;;;;19.97;42.70;102452.00;2070702;28;1612;-65
2024/01/29 03:55:52;;;;;;;;;;;;;;;19.99;42.77;102454.25;2070344;28;1584;-66
2024/01/29 03:57:19;;;;;;;;;;;;;;;19.99;42.74;102465.75;2069105;28;2187;-65
2024/01/29 03:58:46;;;;;;;;;;;;;;;19.99;42.79;102457.88;2068085;28;2348;-66
2024/01/29 04:00:16;;;;;;;;;;;;;;;20.00;42.89;102461.53;2068996;28;6308;-65
2024/01/29 04:01:42;;;;;;;;;;;;;;;19.99;42.70;102460.00;2068174;28;2089;-65
2024/01/29 04:03:09;;;;;;;;;;;;;;;20.01;42.82;102465.91;2069978;28;2072;-65
2024/01/29 04:04:36;;;;;;;;;;;;;;;20.00;42.89;102462.28;2069612;28;2273;-65
2024/01/29 04:06:05;;;;;;;;;;;;;;;20.01;42.80;102468.78;2070112;28;1564;-65
2024/01/29 04:07:31;;;;;;;;;;;;;;;20.04;42.77;102465.47;2066266;28;2287;-66
2024/01/29 04:08:58;;;;;;;;;;;;;;;20.02;42.80;102465.31;2069907;28;1623;-65
2024/01/29 04:10:24;;;;;;;;;;;;;;;20.04;42.96;102461.81;2069279;28;1571;-66
2024/01/29 04:11:51;;;;;;;;;;;;;;;20.05;42.84;102469.09;2067802;28;1567;-65
2024/01/29 04:13:18;;;;;;;;;;;;;;;20.05;42.82;102463.34;2069303;28;1685;-65
2024/01/29 04:14:46;;;;;;;;;;;;;;;20.05;42.92;102458.34;2070195;28;1840;-66
2024/01/29 04:16:12;;;;;;;;;;;;;;;20.05;42.82;102454.72;2069166;28;2121;-66
2024/01/29 04:17:39;;;;;;;;;;;;;;;20.03;42.89;102452.44;2069667;28;1991;-65
2024/01/29 04:19:06;;;;;;;;;;;;;;;20.04;42.98;102445.34;2071823;28;1581;-65
2024/01/29 04:20:33;;;;;;;;;;;;;;;20.05;42.96;102452.59;2069908;28;1640;-65
2024/01/29 04:22:00;;;;;;;;;;;;;;;20.02;42.92;102458.78;2068965;28;1986;-66
2024/01/29 04:23:27;;;;;;;;;;;;;;;20.02;42.99;102453.81;2066242;28;2048;-65
2024/01/29 04:24:53;;;;;;;;;;;;;;;20.02;42.94;102453.03;2070657;28;1588;-65
2024/01/29 04:26:20;;;;;;;;;;;;;;;20.01;42.92;102452.28;2070861;28;1694;-66
2024/01/29 04:27:48;;;;;;;;;;;;;;;20.01;42.77;102448.66;2067993;28;2056;-65
2024/01/29 04:29:15;;;;;;;;;;;;;;;20.02;42.76;102441.53;2068622;28;1728;-65
2024/01/29 04:30:42;;;;;;;;;;;;;;;20.01;42.92;102440.78;2069982;28;6139;-65
2024/01/29 04:32:09;;;;;;;;;;;;;;;20.01;42.84;102446.53;2069465;28;2234;-65
2024/01/29 04:33:38;;;;;;;;;;;;;;;20.00;42.83;102438.53;2067442;28;2014;-65
2024/01/29 04:35:04;;;;;;;;;;;;;;;20.01;42.95;102440.78;2068675;28;1700;-65
2024/01/29 04:36:31;;;;;;;;;;;;;;;20.00;42.73;102439.28;2071156;28;1618;-65
2024/01/29 04:37:58;;;;;;;;;;;;;;;20.02;42.79;102436.56;2066788;28;2234;-65
2024/01/29 04:39:25;;;;;;;;;;;;;;;20.02;42.76;102435.78;2069826;28;2053;-65
2024/01/29 04:40:52;;;;;;;;;;;;;;;20.02;42.96;102436.56;2065886;28;2018;-65
2024/01/29 04:42:19;;;;;;;;;;;;;;;20.04;42.89;102439.59;2066858;28;2629;-65
2024/01/29 04:43:46;;;;;;;;;;;;;;;20.03;42.88;102432.31;2071329;28;2127;-65
2024/01/29 04:45:13;;;;;;;;;;;;;;;20.05;42.75;102441.09;2066417;28;2069;-65
2024/01/29 04:46:40;;;;;;;;;;;;;;;20.04;42.75;102436.72;2066202;28;2030;-65
2024/01/29 04:48:07;;;;;;;;;;;;;;;20.06;42.77;102436.84;2068709;28;1640;-65
2024/01/29 04:49:34;;;;;;;;;;;;;;;20.06;42.76;102428.22;2068708;28;2042;-65
2024/01/29 04:51:04;;;;;;;;;;;;;;;20.07;42.81;102435.50;2067327;28;2230;-65
2024/01/29 04:52:31;;;;;;;;;;;;;;;20.08;42.77;102439.13;2067966;28;2206;-65
2024/01/29 04:53:58;;;;;;;;;;;;;;;20.08;42.80;102434.09;2069537;28;1542;-65
2024/01/29 04:55:25;;;;;;;;;;;;;;;20.09;42.78;102429.13;2066741;28;1719;-65
2024/01/29 04:56:52;;;;;;;;;;;;;;;20.09;42.71;102426.25;2063926;28;2143;-66
2024/01/29 04:58:19;;;;;;;;;;;;;;;20.08;42.74;102439.88;2067977;28;2102;-65
2024/01/29 04:59:46;;;;;;;;;;;;;;;20.09;42.80;102423.38;2067538;28;2204;-65
2024/01/29 05:01:13;;;;;;;;;;;;;;;20.09;42.82;102438.50;2065793;28;6415;-65
2024/01/29 05:02:40;;;;;;;;;;;;;;;20.09;42.82;102424.13;2066399;28;2081;-66
2024/01/29 05:04:07;;;;;;;;;;;;;;;20.07;42.83;102421.09;2069721;28;2225;-65
2024/01/29 05:05:34;;;;;;;;;;;;;;;20.09;42.96;102429.13;2069730;28;2040;-65
2024/01/29 05:07:01;;;;;;;;;;;;;;;20.09;42.65;102423.38;2069076;28;2331;-66
2024/01/29 05:08:29;;;;;;;;;;;;;;;20.08;42.75;102428.34;2068455;28;1843;-65
2024/01/29 05:09:56;;;;;;;;;;;;;;;20.08;42.81;102428.34;2068202;28;1700;-66
2024/01/29 05:11:23;;;;;;;;;;;;;;;20.08;42.74;102424.72;2069387;28;1628;-65
2024/01/29 05:12:50;;;;;;;;;;;;;;;20.06;42.93;102431.09;2065715;28;2222;-65
2024/01/29 05:14:17;;;;;;;;;;;;;;;20.07;42.81;102435.50;2070179;28;1721;-66
2024/01/29 05:15:44;;;;;;;;;;;;;;;20.06;42.79;102422.47;2069367;28;2121;-66
2024/01/29 05:17:11;;;;;;;;;;;;;;;20.07;42.81;102428.97;2068630;28;2067;-66
2024/01/29 05:18:38;;;;;;;;;;;;;;;20.06;42.95;102421.72;2068248;28;1621;-66
2024/01/29 05:20:07;;;;;;;;;;;;;;;20.05;42.90;102426.72;2069613;28;1651;-65
2024/01/29 05:21:33;;;;;;;;;;;;;;;20.06;42.69;102431.09;2069121;28;2112;-65
2024/01/29 05:23:00;;;;;;;;;;;;;;;20.06;42.78;102424.59;2066523;28;2336;-66
2024/01/29 05:24:26;;;;;;;;;;;;;;;20.06;42.75;102419.56;2068932;28;2109;-65
2024/01/29 05:25:53;;;;;;;;;;;;;;;20.06;42.81;102431.09;2068996;28;2068;-66
2024/01/29 05:27:20;;;;;;;;;;;;;;;20.06;42.74;102428.22;2067175;28;2297;-65
2024/01/29 05:28:47;;;;;;;;;;;;;;;20.05;42.87;102429.59;2068969;28;2013;-65
2024/01/29 05:30:15;;;;;;;;;;;;;;;20.05;42.70;102429.59;2070086;28;6309;-65
2024/01/29 05:31:41;;;;;;;;;;;;;;;20.04;42.88;102433.84;2065916;28;2030;-65
2024/01/29 05:33:08;;;;;;;;;;;;;;;20.03;42.84;102438.06;2066477;28;2319;-65
2024/01/29 05:34:52;;;;;;;;;;;;;;;20.03;42.75;102426.56;2069668;28;2326;-65
2024/01/29 05:36:19;;;;;;;;;;;;;;;20.02;42.80;102430.81;2068052;28;2293;-65
2024/01/29 05:37:45;;;;;;;;;;;;;;;20.03;42.74;102428.69;2065140;28;2096;-65
2024/01/29 05:39:12;;;;;;;;;;;;;;;20.02;42.75;102436.56;2065286;28;2307;-65
2024/01/29 05:40:39;;;;;;;;;;;;;;;20.04;42.81;102438.81;2070050;28;2336;-65
2024/01/29 05:42:06;;;;;;;;;;;;;;;20.02;42.85;102436.56;2068807;28;2065;-64
2024/01/29 05:43:33;;;;;;;;;;;;;;;20.05;42.85;102428.84;2065039;28;2250;-66
2024/01/29 05:45:01;;;;;;;;;;;;;;;19.73;40.70;102432.97;2069821;28;2221;-65
2024/01/29 05:46:27;;;;;;;;;;;;;;;19.54;40.74;102431.59;2068415;28;2301;-63
2024/01/29 05:47:54;;;;;;;;;;;;;;;19.67;42.41;102427.47;2068922;28;1580;-66
2024/01/29 05:49:22;;;;;;;;;;;;;;;19.87;42.43;102431.13;2066658;28;2269;-67
2024/01/29 05:50:49;;;;;;;;;;;;;;;19.91;42.23;102428.56;2067994;28;2194;-64
2024/01/29 05:52:19;;;;;;;;;;;;;;;19.80;42.35;102432.06;2067784;28;1985;-63
2024/01/29 05:53:46;;;;;;;;;;;;;;;19.80;42.51;102429.19;2069363;28;1608;-63
2024/01/29 05:55:13;;;;;;;;;;;;;;;19.83;42.33;102428.69;2064753;28;1748;-64
2024/01/29 05:56:41;;;;;;;;;;;;;;;19.88;41.84;102432.63;2070829;28;1527;-64
2024/01/29 05:58:07;;;;;;;;;;;;;;;19.91;41.84;102422.81;2069377;28;2099;-64
2024/01/29 05:59:34;;;;;;;;;;;;;;;19.94;41.81;102418.72;2067327;28;1681;-64
2024/01/29 06:01:00;;;;;;;;;;;;;;;19.97;41.97;102420.34;2069078;28;6411;-63
2024/01/29 06:02:27;;;;;;;;;;;;;;;19.99;42.02;102414.00;2069716;28;1910;-64
2024/01/29 06:03:53;;;;;;;;;;;;;;;20.01;41.95;102417.78;2068292;28;2024;-64
2024/01/29 06:05:20;;;;;;;;;;;;;;;20.03;41.92;102414.31;2070842;28;1644;-63
2024/01/29 06:06:47;;;;;;;;;;;;;;;20.04;42.12;102405.09;2069557;28;1645;-63
2024/01/29 06:08:14;;;;;;;;;;;;;;;20.05;42.10;102412.34;2068262;28;1598;-64
2024/01/29 06:09:40;;;;;;;;;;;;;;;20.04;42.37;102410.84;2069567;28;1601;-64
2024/01/29 06:11:07;;;;;;;;;;;;;;;20.08;42.26;102404.59;2072190;28;1546;-63
2024/01/29 06:12:34;;;;;;;;;;;;;;;20.07;42.30;102409.59;2066615;28;2065;-64
2024/01/29 06:14:01;;;;;;;;;;;;;;;20.07;42.46;102403.09;2067346;28;1776;-63
2024/01/29 06:15:27;;;;;;;;;;;;;;;20.11;42.38;102408.38;2068661;28;1885;-63
2024/01/29 06:16:57;;;;;;;;;;;;;;;20.12;42.48;102404.16;2066963;28;1636;-63
2024/01/29 06:18:24;;;;;;;;;;;;;;;20.11;42.48;102405.50;2068883;28;1581;-63
2024/01/29 06:19:51;;;;;;;;;;;;;;;20.11;42.45;102402.63;2070517;28;1614;-63
2024/01/29 06:21:38;;;;;;;;;;;;;;;20.11;42.57;102409.13;2068211;28;1656;-63
2024/01/29 06:23:06;;;;;;;;;;;;;;;20.11;42.53;102408.38;2067078;28;2063;-63
2024/01/29 06:24:33;;;;;;;;;;;;;;;20.09;42.73;102406.88;2070215;28;1650;-64
2024/01/29 06:26:00;;;;;;;;;;;;;;;20.09;42.47;102412.63;2069424;28;1595;-63
2024/01/29 06:27:27;;;;;;;;;;;;;;;20.10;42.57;102419.13;2067119;28;2148;-59
2024/01/29 06:28:55;;;;;;;;;;;;;;;20.07;42.81;102415.34;2068199;28;2292;-62
2024/01/29 06:30:23;;;;;;;;;;;;;;;20.06;42.67;102405.19;2062964;28;6331;-62
2024/01/29 06:31:50;;;;;;;;;;;;;;;20.07;42.52;102405.97;2062681;28;2117;-62
2024/01/29 06:33:16;;;;;;;;;;;;;;;20.06;42.76;102407.31;2060908;28;1625;-62
2024/01/29 06:34:43;;;;;;;;;;;;;;;20.05;42.83;102400.81;2060005;28;1622;-62
2024/01/29 06:36:14;;;;;;;;;;;;;;;20.05;42.80;102406.56;2060415;28;1658;-62
2024/01/29 06:37:41;;;;;;;;;;;;;;;20.04;42.73;102404.31;2059123;28;2183;-62
2024/01/29 06:39:08;;;;;;;;;;;;;;;20.03;42.72;102394.94;2063733;28;1614;-62
2024/01/29 06:40:35;;;;;;;;;;;;;;;20.03;42.74;102397.06;2061776;28;1685;-62
2024/01/29 06:42:03;;;;;;;;;;;;;;;20.02;42.87;102399.19;2058368;28;1729;-62
2024/01/29 06:43:30;;;;;;;;;;;;;;;20.02;42.77;102396.31;2061993;28;1639;-62
2024/01/29 06:44:58;;;;;;;;;;;;;;;20.04;42.85;102399.34;2061552;28;1641;-62
2024/01/29 06:46:25;;;;;;;;;;;;;;;20.04;42.79;102416.59;2062865;28;1646;-62
2024/01/29 06:47:52;;;;;;;;;;;;;;;20.03;42.88;102409.31;2059511;28;2267;-62
2024/01/29 06:49:27;;;;;;;;;;;;;;;20.05;42.84;102417.34;2059615;28;1642;-62
2024/01/29 06:50:54;;;;;;;;;;;;;;;20.04;43.06;102407.97;2062359;28;1698;-62
2024/01/29 06:52:21;;;;;;;;;;;;;;;20.05;43.05;102412.34;2059909;28;1666;-62
2024/01/29 06:53:48;;;;;;;;;;;;;;;20.06;43.05;102416.72;2060137;28;1627;-62
2024/01/29 06:55:17;;;;;;;;;;;;;;;20.06;42.95;102408.06;2063165;28;1681;-62
2024/01/29 06:56:44;;;;;;;;;;;;;;;20.07;42.92;102411.72;2062258;28;1613;-62
2024/01/29 06:58:11;;;;;;;;;;;;;;;20.07;42.91;102415.34;2063530;28;1578;-62
2024/01/29 06:59:38;;;;;;;;;;;;;;;20.08;43.07;102413.97;2063592;28;1586;-63
2024/01/29 07:01:05;;;;;;;;;;;;;;;20.09;42.99;102412.63;2068875;28;6234;-62
2024/01/29 07:02:32;;;;;;;;;;;;;;;20.11;42.93;102412.00;2063247;28;2154;-62
2024/01/29 07:03:59;;;;;;;;;;;;;;;20.09;43.14;102415.50;2065776;28;2664;-62
2024/01/29 07:05:26;;;;;;;;;;;;;;;20.12;43.19;102418.53;2068658;28;1920;-62
2024/01/29 07:06:55;;;;;;;;;;;;;;;20.13;42.99;102415.03;2068273;28;1795;-62
2024/01/29 07:08:21;;;;;;;;;;;;;;;20.13;43.13;102420.78;2068644;28;1655;-62
2024/01/29 07:09:51;;;;;;;;;;;;;;;20.14;43.13;102424.44;2068559;28;1628;-62
2024/01/29 07:11:17;;;;;;;;;;;;;;;20.14;43.08;102424.44;2068469;28;1614;-63
2024/01/29 07:12:44;;;;;;;;;;;;;;;20.14;43.08;102419.44;2065921;28;2103;-62
2024/01/29 07:14:11;;;;;;;;;;;;;;;20.15;43.00;102423.06;2069212;28;2149;-63
2024/01/29 07:15:38;;;;;;;;;;;;;;;20.15;43.03;102426.69;2067527;28;2198;-62
2024/01/29 07:17:05;;;;;;;;;;;;;;;20.14;43.29;102435.94;2067789;28;1683;-62
2024/01/29 07:18:31;;;;;;;;;;;;;;;20.15;43.14;102432.44;2069414;28;1625;-62
2024/01/29 07:19:58;;;;;;;;;;;;;;;20.17;43.01;102431.84;2069828;28;1626;-62
2024/01/29 07:21:26;;;;;;;;;;;;;;;20.18;42.96;102421.81;2067171;28;1657;-62
2024/01/29 07:22:53;;;;;;;;;;;;;;;20.17;43.25;102417.44;2067451;28;2009;-62
2024/01/29 07:24:20;;;;;;;;;;;;;;;20.18;43.08;102410.31;2068812;28;1613;-62
2024/01/29 07:25:47;;;;;;;;;;;;;;;20.18;43.09;102413.19;2067143;28;2025;-63
2024/01/29 07:27:17;;;;;;;;;;;;;;;20.17;43.03;102412.44;2065274;28;2056;-62
2024/01/29 07:28:44;;;;;;;;;;;;;;;20.17;43.11;102411.69;2068270;28;1779;-63
2024/01/29 07:30:11;;;;;;;;;;;;;;;20.17;43.22;102411.69;2064680;28;6493;-62
2024/01/29 07:31:38;;;;;;;;;;;;;;;20.16;43.10;102415.94;2069032;28;1640;-62
2024/01/29 07:33:05;;;;;;;;;;;;;;;20.14;43.11;102419.44;2069209;28;1596;-62
2024/01/29 07:34:32;;;;;;;;;;;;;;;20.14;43.05;102416.56;2069369;28;1788;-62